sensor_id;sensor_type;location;lat;lon;timestamp;P1;durP1;ratioP1;P2;durP2;ratioP2
12818;SDS011;6474;53.474;9.894;2022-07-06T00:00:16;0.53;;;0.53;;
12818;SDS011;6474;53.474;9.894;2022-07-06T00:02:44;0.40;;;0.40;;
12818;SDS011;6474;53.474;9.894;2022-07-06T00:05:12;0.68;;;0.68;;
12818;SDS011;6474;53.474;9.894;2022-07-06T00:07:42;0.40;;;0.40;;
12818;SDS011;6474;53.474;9.894;2022-07-06T00:10:09;2.87;;;0.40;;
12818;SDS011;6474;53.474;9.894;2022-07-06T00:12:37;0.47;;;0.47;;
12818;SDS011;6474;53.474;9.894;2022-07-06T00:15:05;0.37;;;0.37;;
12818;SDS011;6474;53.474;9.894;2022-07-06T00:17:34;0.50;;;0.50;;
12818;SDS011;6474;53.474;9.894;2022-07-06T00:20:02;0.57;;;0.57;;
12818;SDS011;6474;53.474;9.894;2022-07-06T00:22:32;0.40;;;0.40;;
12818;SDS011;6474;53.474;9.894;2022-07-06T00:25:01;0.50;;;0.50;;
12818;SDS011;6474;53.474;9.894;2022-07-06T00:27:29;1.90;;;0.60;;
12818;SDS011;6474;53.474;9.894;2022-07-06T00:29:57;0.43;;;0.43;;
12818;SDS011;6474;53.474;9.894;2022-07-06T00:32:25;0.70;;;0.70;;
12818;SDS011;6474;53.474;9.894;2022-07-06T00:34:53;0.70;;;0.70;;
12818;SDS011;6474;53.474;9.894;2022-07-06T00:37:21;0.73;;;0.70;;
12818;SDS011;6474;53.474;9.894;2022-07-06T00:39:49;0.50;;;0.50;;
12818;SDS011;6474;53.474;9.894;2022-07-06T00:42:18;0.60;;;0.60;;
12818;SDS011;6474;53.474;9.894;2022-07-06T00:44:48;1.30;;;1.17;;
12818;SDS011;6474;53.474;9.894;2022-07-06T00:47:16;0.60;;;0.60;;
12818;SDS011;6474;53.474;9.894;2022-07-06T00:49:44;0.63;;;0.63;;
12818;SDS011;6474;53.474;9.894;2022-07-06T00:52:29;1.20;;;0.53;;
12818;SDS011;6474;53.474;9.894;2022-07-06T00:54:57;1.70;;;0.80;;
12818;SDS011;6474;53.474;9.894;2022-07-06T00:57:29;0.70;;;0.70;;
12818;SDS011;6474;53.474;9.894;2022-07-06T00:59:58;0.47;;;0.47;;
12818;SDS011;6474;53.474;9.894;2022-07-06T01:02:26;0.50;;;0.50;;
12818;SDS011;6474;53.474;9.894;2022-07-06T01:04:57;0.60;;;0.60;;
12818;SDS011;6474;53.474;9.894;2022-07-06T01:07:25;0.87;;;0.70;;
12818;SDS011;6474;53.474;9.894;2022-07-06T01:09:54;0.63;;;0.63;;
12818;SDS011;6474;53.474;9.894;2022-07-06T01:12:22;0.60;;;0.60;;
12818;SDS011;6474;53.474;9.894;2022-07-06T01:14:52;0.50;;;0.50;;
12818;SDS011;6474;53.474;9.894;2022-07-06T01:17:20;0.47;;;0.47;;
12818;SDS011;6474;53.474;9.894;2022-07-06T01:19:49;0.70;;;0.70;;
12818;SDS011;6474;53.474;9.894;2022-07-06T01:22:18;0.77;;;0.77;;
12818;SDS011;6474;53.474;9.894;2022-07-06T01:24:46;0.60;;;0.60;;
12818;SDS011;6474;53.474;9.894;2022-07-06T01:27:14;0.90;;;0.90;;
12818;SDS011;6474;53.474;9.894;2022-07-06T01:29:42;0.60;;;0.60;;
12818;SDS011;6474;53.474;9.894;2022-07-06T01:32:10;0.70;;;0.70;;
12818;SDS011;6474;53.474;9.894;2022-07-06T01:34:39;0.43;;;0.43;;
12818;SDS011;6474;53.474;9.894;2022-07-06T01:37:07;0.77;;;0.77;;
12818;SDS011;6474;53.474;9.894;2022-07-06T01:39:37;0.60;;;0.60;;
12818;SDS011;6474;53.474;9.894;2022-07-06T01:42:05;0.80;;;0.80;;
12818;SDS011;6474;53.474;9.894;2022-07-06T01:44:33;0.80;;;0.80;;
12818;SDS011;6474;53.474;9.894;2022-07-06T01:47:01;0.70;;;0.70;;
12818;SDS011;6474;53.474;9.894;2022-07-06T01:49:29;0.40;;;0.40;;
12818;SDS011;6474;53.474;9.894;2022-07-06T01:51:57;1.03;;;0.80;;
12818;SDS011;6474;53.474;9.894;2022-07-06T01:54:25;0.40;;;0.40;;
12818;SDS011;6474;53.474;9.894;2022-07-06T01:56:54;0.73;;;0.60;;
12818;SDS011;6474;53.474;9.894;2022-07-06T01:59:22;0.50;;;0.50;;
12818;SDS011;6474;53.474;9.894;2022-07-06T02:01:50;0.60;;;0.60;;
12818;SDS011;6474;53.474;9.894;2022-07-06T02:04:18;0.80;;;0.80;;
12818;SDS011;6474;53.474;9.894;2022-07-06T02:06:46;0.53;;;0.53;;
12818;SDS011;6474;53.474;9.894;2022-07-06T02:09:14;2.33;;;0.43;;
12818;SDS011;6474;53.474;9.894;2022-07-06T02:11:42;0.60;;;0.43;;
12818;SDS011;6474;53.474;9.894;2022-07-06T02:14:12;0.60;;;0.60;;
12818;SDS011;6474;53.474;9.894;2022-07-06T02:16:39;1.40;;;0.67;;
12818;SDS011;6474;53.474;9.894;2022-07-06T02:19:07;0.87;;;0.60;;
12818;SDS011;6474;53.474;9.894;2022-07-06T02:21:35;0.60;;;0.60;;
12818;SDS011;6474;53.474;9.894;2022-07-06T02:24:04;1.50;;;0.80;;
12818;SDS011;6474;53.474;9.894;2022-07-06T02:26:32;3.10;;;0.73;;
12818;SDS011;6474;53.474;9.894;2022-07-06T02:29:00;0.90;;;0.80;;
12818;SDS011;6474;53.474;9.894;2022-07-06T02:31:29;1.60;;;0.60;;
12818;SDS011;6474;53.474;9.894;2022-07-06T02:33:57;0.63;;;0.63;;
12818;SDS011;6474;53.474;9.894;2022-07-06T02:36:24;0.50;;;0.50;;
12818;SDS011;6474;53.474;9.894;2022-07-06T02:38:52;0.60;;;0.60;;
12818;SDS011;6474;53.474;9.894;2022-07-06T02:41:20;0.60;;;0.60;;
12818;SDS011;6474;53.474;9.894;2022-07-06T02:43:48;0.60;;;0.60;;
12818;SDS011;6474;53.474;9.894;2022-07-06T02:46:16;1.30;;;0.73;;
12818;SDS011;6474;53.474;9.894;2022-07-06T02:48:45;0.67;;;0.40;;
12818;SDS011;6474;53.474;9.894;2022-07-06T02:51:13;0.80;;;0.80;;
12818;SDS011;6474;53.474;9.894;2022-07-06T02:53:41;0.80;;;0.73;;
12818;SDS011;6474;53.474;9.894;2022-07-06T02:56:09;0.67;;;0.67;;
12818;SDS011;6474;53.474;9.894;2022-07-06T02:58:37;0.70;;;0.70;;
12818;SDS011;6474;53.474;9.894;2022-07-06T03:01:05;0.30;;;0.30;;
12818;SDS011;6474;53.474;9.894;2022-07-06T03:03:33;0.93;;;0.93;;
12818;SDS011;6474;53.474;9.894;2022-07-06T03:06:02;0.60;;;0.60;;
12818;SDS011;6474;53.474;9.894;2022-07-06T03:08:30;0.70;;;0.70;;
12818;SDS011;6474;53.474;9.894;2022-07-06T03:10:58;0.80;;;0.80;;
12818;SDS011;6474;53.474;9.894;2022-07-06T03:13:26;0.83;;;0.70;;
12818;SDS011;6474;53.474;9.894;2022-07-06T03:15:55;0.70;;;0.70;;
12818;SDS011;6474;53.474;9.894;2022-07-06T03:18:22;0.60;;;0.60;;
12818;SDS011;6474;53.474;9.894;2022-07-06T03:20:51;2.13;;;0.73;;
12818;SDS011;6474;53.474;9.894;2022-07-06T03:23:20;0.70;;;0.70;;
12818;SDS011;6474;53.474;9.894;2022-07-06T03:25:48;6.70;;;0.80;;
12818;SDS011;6474;53.474;9.894;2022-07-06T03:28:16;3.60;;;0.77;;
12818;SDS011;6474;53.474;9.894;2022-07-06T03:30:47;0.60;;;0.60;;
12818;SDS011;6474;53.474;9.894;2022-07-06T03:33:15;1.63;;;0.40;;
12818;SDS011;6474;53.474;9.894;2022-07-06T03:35:43;0.70;;;0.70;;
12818;SDS011;6474;53.474;9.894;2022-07-06T03:38:11;0.80;;;0.80;;
12818;SDS011;6474;53.474;9.894;2022-07-06T03:40:40;0.60;;;0.60;;
12818;SDS011;6474;53.474;9.894;2022-07-06T03:43:08;0.60;;;0.60;;
12818;SDS011;6474;53.474;9.894;2022-07-06T03:45:36;0.60;;;0.60;;
12818;SDS011;6474;53.474;9.894;2022-07-06T03:48:04;0.80;;;0.80;;
12818;SDS011;6474;53.474;9.894;2022-07-06T03:50:32;0.67;;;0.67;;
12818;SDS011;6474;53.474;9.894;2022-07-06T03:53:00;1.43;;;0.60;;
12818;SDS011;6474;53.474;9.894;2022-07-06T03:55:30;2.60;;;0.67;;
12818;SDS011;6474;53.474;9.894;2022-07-06T03:58:00;0.47;;;0.47;;
12818;SDS011;6474;53.474;9.894;2022-07-06T04:00:31;0.70;;;0.70;;
12818;SDS011;6474;53.474;9.894;2022-07-06T04:03:00;1.80;;;0.50;;
12818;SDS011;6474;53.474;9.894;2022-07-06T04:05:28;0.57;;;0.57;;
12818;SDS011;6474;53.474;9.894;2022-07-06T04:07:56;0.73;;;0.73;;
12818;SDS011;6474;53.474;9.894;2022-07-06T04:10:24;0.50;;;0.50;;
12818;SDS011;6474;53.474;9.894;2022-07-06T04:12:52;0.70;;;0.70;;
12818;SDS011;6474;53.474;9.894;2022-07-06T04:15:22;0.73;;;0.73;;
12818;SDS011;6474;53.474;9.894;2022-07-06T04:17:49;0.50;;;0.50;;
12818;SDS011;6474;53.474;9.894;2022-07-06T04:20:22;0.40;;;0.40;;
12818;SDS011;6474;53.474;9.894;2022-07-06T04:22:51;0.60;;;0.60;;
12818;SDS011;6474;53.474;9.894;2022-07-06T04:25:19;0.60;;;0.60;;
12818;SDS011;6474;53.474;9.894;2022-07-06T04:27:47;0.60;;;0.60;;
12818;SDS011;6474;53.474;9.894;2022-07-06T04:30:15;0.70;;;0.70;;
12818;SDS011;6474;53.474;9.894;2022-07-06T04:32:44;0.50;;;0.50;;
12818;SDS011;6474;53.474;9.894;2022-07-06T04:35:12;0.70;;;0.70;;
12818;SDS011;6474;53.474;9.894;2022-07-06T04:37:40;0.60;;;0.60;;
12818;SDS011;6474;53.474;9.894;2022-07-06T04:40:08;0.70;;;0.70;;
12818;SDS011;6474;53.474;9.894;2022-07-06T04:42:43;0.87;;;0.87;;
12818;SDS011;6474;53.474;9.894;2022-07-06T04:45:11;0.60;;;0.60;;
12818;SDS011;6474;53.474;9.894;2022-07-06T04:47:40;0.77;;;0.77;;
12818;SDS011;6474;53.474;9.894;2022-07-06T04:50:11;0.53;;;0.53;;
12818;SDS011;6474;53.474;9.894;2022-07-06T04:52:39;0.47;;;0.47;;
12818;SDS011;6474;53.474;9.894;2022-07-06T04:55:07;0.80;;;0.80;;
12818;SDS011;6474;53.474;9.894;2022-07-06T04:57:36;0.40;;;0.40;;
12818;SDS011;6474;53.474;9.894;2022-07-06T05:00:04;0.70;;;0.70;;
12818;SDS011;6474;53.474;9.894;2022-07-06T05:02:33;0.60;;;0.60;;
12818;SDS011;6474;53.474;9.894;2022-07-06T05:05:01;0.80;;;0.80;;
12818;SDS011;6474;53.474;9.894;2022-07-06T05:07:31;0.50;;;0.50;;
12818;SDS011;6474;53.474;9.894;2022-07-06T05:10:00;0.50;;;0.50;;
12818;SDS011;6474;53.474;9.894;2022-07-06T05:12:28;2.20;;;0.80;;
12818;SDS011;6474;53.474;9.894;2022-07-06T05:14:55;0.40;;;0.40;;
12818;SDS011;6474;53.474;9.894;2022-07-06T05:17:23;0.55;;;0.55;;
12818;SDS011;6474;53.474;9.894;2022-07-06T05:19:55;3.70;;;0.87;;
12818;SDS011;6474;53.474;9.894;2022-07-06T05:22:22;1.27;;;0.57;;
12818;SDS011;6474;53.474;9.894;2022-07-06T05:24:56;0.53;;;0.53;;
12818;SDS011;6474;53.474;9.894;2022-07-06T05:27:24;0.50;;;0.50;;
12818;SDS011;6474;53.474;9.894;2022-07-06T05:29:52;0.40;;;0.40;;
12818;SDS011;6474;53.474;9.894;2022-07-06T05:32:19;2.90;;;0.70;;
12818;SDS011;6474;53.474;9.894;2022-07-06T05:34:47;1.02;;;0.60;;
12818;SDS011;6474;53.474;9.894;2022-07-06T05:37:17;0.50;;;0.50;;
12818;SDS011;6474;53.474;9.894;2022-07-06T05:39:45;0.47;;;0.47;;
12818;SDS011;6474;53.474;9.894;2022-07-06T05:42:17;0.63;;;0.63;;
12818;SDS011;6474;53.474;9.894;2022-07-06T05:44:44;0.60;;;0.60;;
12818;SDS011;6474;53.474;9.894;2022-07-06T05:47:12;0.60;;;0.60;;
12818;SDS011;6474;53.474;9.894;2022-07-06T05:49:58;0.30;;;0.30;;
12818;SDS011;6474;53.474;9.894;2022-07-06T05:52:42;0.60;;;0.60;;
12818;SDS011;6474;53.474;9.894;2022-07-06T05:55:11;0.60;;;0.60;;
12818;SDS011;6474;53.474;9.894;2022-07-06T05:57:40;0.67;;;0.57;;
12818;SDS011;6474;53.474;9.894;2022-07-06T06:00:09;0.20;;;0.20;;
12818;SDS011;6474;53.474;9.894;2022-07-06T06:02:38;0.50;;;0.50;;
12818;SDS011;6474;53.474;9.894;2022-07-06T06:05:07;0.40;;;0.40;;
12818;SDS011;6474;53.474;9.894;2022-07-06T06:07:37;0.50;;;0.50;;
12818;SDS011;6474;53.474;9.894;2022-07-06T06:10:06;0.60;;;0.60;;
12818;SDS011;6474;53.474;9.894;2022-07-06T06:12:36;0.40;;;0.40;;
12818;SDS011;6474;53.474;9.894;2022-07-06T06:15:07;0.40;;;0.40;;
12818;SDS011;6474;53.474;9.894;2022-07-06T06:17:36;0.63;;;0.30;;
12818;SDS011;6474;53.474;9.894;2022-07-06T06:20:06;0.30;;;0.30;;
12818;SDS011;6474;53.474;9.894;2022-07-06T06:22:43;7.00;;;0.50;;
12818;SDS011;6474;53.474;9.894;2022-07-06T06:25:13;0.30;;;0.30;;
12818;SDS011;6474;53.474;9.894;2022-07-06T06:27:41;0.30;;;0.30;;
12818;SDS011;6474;53.474;9.894;2022-07-06T06:30:11;0.23;;;0.23;;
12818;SDS011;6474;53.474;9.894;2022-07-06T06:32:40;0.60;;;0.60;;
12818;SDS011;6474;53.474;9.894;2022-07-06T06:35:08;1.48;;;0.75;;
12818;SDS011;6474;53.474;9.894;2022-07-06T06:37:36;0.30;;;0.30;;
12818;SDS011;6474;53.474;9.894;2022-07-06T06:40:05;0.40;;;0.40;;
12818;SDS011;6474;53.474;9.894;2022-07-06T06:42:35;0.70;;;0.70;;
12818;SDS011;6474;53.474;9.894;2022-07-06T06:45:04;0.40;;;0.40;;
12818;SDS011;6474;53.474;9.894;2022-07-06T06:47:34;0.30;;;0.30;;
12818;SDS011;6474;53.474;9.894;2022-07-06T06:50:02;0.27;;;0.27;;
12818;SDS011;6474;53.474;9.894;2022-07-06T06:52:30;2.30;;;0.50;;
12818;SDS011;6474;53.474;9.894;2022-07-06T06:55:09;0.40;;;0.40;;
12818;SDS011;6474;53.474;9.894;2022-07-06T06:57:39;0.40;;;0.40;;
12818;SDS011;6474;53.474;9.894;2022-07-06T07:00:07;0.20;;;0.20;;
12818;SDS011;6474;53.474;9.894;2022-07-06T07:02:37;0.43;;;0.43;;
12818;SDS011;6474;53.474;9.894;2022-07-06T07:05:05;1.13;;;0.35;;
12818;SDS011;6474;53.474;9.894;2022-07-06T07:07:34;3.10;;;0.60;;
12818;SDS011;6474;53.474;9.894;2022-07-06T07:10:03;0.40;;;0.38;;
12818;SDS011;6474;53.474;9.894;2022-07-06T07:12:32;1.85;;;0.43;;
12818;SDS011;6474;53.474;9.894;2022-07-06T07:15:00;0.32;;;0.32;;
12818;SDS011;6474;53.474;9.894;2022-07-06T07:17:29;0.38;;;0.38;;
12818;SDS011;6474;53.474;9.894;2022-07-06T07:19:58;1.70;;;0.32;;
12818;SDS011;6474;53.474;9.894;2022-07-06T07:22:26;1.45;;;0.57;;
12818;SDS011;6474;53.474;9.894;2022-07-06T07:24:54;1.02;;;0.45;;
12818;SDS011;6474;53.474;9.894;2022-07-06T07:27:22;0.32;;;0.32;;
12818;SDS011;6474;53.474;9.894;2022-07-06T07:29:50;0.20;;;0.20;;
12818;SDS011;6474;53.474;9.894;2022-07-06T07:32:19;0.30;;;0.30;;
12818;SDS011;6474;53.474;9.894;2022-07-06T07:34:47;0.20;;;0.20;;
12818;SDS011;6474;53.474;9.894;2022-07-06T07:37:16;0.10;;;0.10;;
12818;SDS011;6474;53.474;9.894;2022-07-06T07:39:44;0.40;;;0.40;;
12818;SDS011;6474;53.474;9.894;2022-07-06T07:42:12;0.28;;;0.28;;
12818;SDS011;6474;53.474;9.894;2022-07-06T07:44:43;0.13;;;0.13;;
12818;SDS011;6474;53.474;9.894;2022-07-06T07:47:11;0.40;;;0.40;;
12818;SDS011;6474;53.474;9.894;2022-07-06T07:49:39;0.20;;;0.20;;
12818;SDS011;6474;53.474;9.894;2022-07-06T07:52:07;0.40;;;0.40;;
12818;SDS011;6474;53.474;9.894;2022-07-06T07:54:37;0.20;;;0.20;;
12818;SDS011;6474;53.474;9.894;2022-07-06T07:57:12;0.30;;;0.30;;
12818;SDS011;6474;53.474;9.894;2022-07-06T07:59:40;0.40;;;0.40;;
12818;SDS011;6474;53.474;9.894;2022-07-06T08:02:09;0.28;;;0.28;;
12818;SDS011;6474;53.474;9.894;2022-07-06T08:04:38;1.65;;;0.45;;
12818;SDS011;6474;53.474;9.894;2022-07-06T08:07:07;0.20;;;0.20;;
12818;SDS011;6474;53.474;9.894;2022-07-06T08:09:35;0.30;;;0.30;;
12818;SDS011;6474;53.474;9.894;2022-07-06T08:12:04;0.32;;;0.32;;
12818;SDS011;6474;53.474;9.894;2022-07-06T08:14:32;0.30;;;0.30;;
12818;SDS011;6474;53.474;9.894;2022-07-06T08:17:00;0.50;;;0.50;;
12818;SDS011;6474;53.474;9.894;2022-07-06T08:19:28;0.40;;;0.40;;
12818;SDS011;6474;53.474;9.894;2022-07-06T08:21:56;0.40;;;0.40;;
12818;SDS011;6474;53.474;9.894;2022-07-06T08:24:24;0.40;;;0.40;;
12818;SDS011;6474;53.474;9.894;2022-07-06T08:26:53;0.40;;;0.40;;
12818;SDS011;6474;53.474;9.894;2022-07-06T08:29:24;1.35;;;0.43;;
12818;SDS011;6474;53.474;9.894;2022-07-06T08:31:52;0.40;;;0.40;;
12818;SDS011;6474;53.474;9.894;2022-07-06T08:34:23;0.50;;;0.50;;
12818;SDS011;6474;53.474;9.894;2022-07-06T08:36:58;0.30;;;0.30;;
12818;SDS011;6474;53.474;9.894;2022-07-06T08:39:26;2.08;;;0.20;;
12818;SDS011;6474;53.474;9.894;2022-07-06T08:41:56;0.60;;;0.20;;
12818;SDS011;6474;53.474;9.894;2022-07-06T08:44:26;0.30;;;0.30;;
12818;SDS011;6474;53.474;9.894;2022-07-06T08:46:54;0.20;;;0.20;;
12818;SDS011;6474;53.474;9.894;2022-07-06T08:49:24;3.00;;;0.40;;
12818;SDS011;6474;53.474;9.894;2022-07-06T08:51:53;0.30;;;0.30;;
12818;SDS011;6474;53.474;9.894;2022-07-06T08:54:22;0.50;;;0.50;;
12818;SDS011;6474;53.474;9.894;2022-07-06T08:56:50;0.13;;;0.13;;
12818;SDS011;6474;53.474;9.894;2022-07-06T08:59:20;0.20;;;0.20;;
12818;SDS011;6474;53.474;9.894;2022-07-06T09:01:48;0.83;;;0.60;;
12818;SDS011;6474;53.474;9.894;2022-07-06T09:04:16;0.40;;;0.27;;
12818;SDS011;6474;53.474;9.894;2022-07-06T09:06:46;0.40;;;0.40;;
12818;SDS011;6474;53.474;9.894;2022-07-06T09:09:16;0.60;;;0.50;;
12818;SDS011;6474;53.474;9.894;2022-07-06T09:11:48;0.52;;;0.52;;
12818;SDS011;6474;53.474;9.894;2022-07-06T09:14:16;0.40;;;0.40;;
12818;SDS011;6474;53.474;9.894;2022-07-06T09:16:46;3.22;;;0.50;;
12818;SDS011;6474;53.474;9.894;2022-07-06T09:19:19;0.43;;;0.43;;
12818;SDS011;6474;53.474;9.894;2022-07-06T09:21:46;0.40;;;0.40;;
12818;SDS011;6474;53.474;9.894;2022-07-06T09:24:15;0.50;;;0.50;;
12818;SDS011;6474;53.474;9.894;2022-07-06T09:26:43;0.28;;;0.28;;
12818;SDS011;6474;53.474;9.894;2022-07-06T09:29:14;0.40;;;0.40;;
12818;SDS011;6474;53.474;9.894;2022-07-06T09:31:56;0.15;;;0.15;;
12818;SDS011;6474;53.474;9.894;2022-07-06T09:34:27;0.30;;;0.30;;
12818;SDS011;6474;53.474;9.894;2022-07-06T09:37:08;0.30;;;0.30;;
12818;SDS011;6474;53.474;9.894;2022-07-06T09:39:36;0.22;;;0.22;;
12818;SDS011;6474;53.474;9.894;2022-07-06T09:42:05;0.63;;;0.50;;
12818;SDS011;6474;53.474;9.894;2022-07-06T09:44:35;0.30;;;0.30;;
12818;SDS011;6474;53.474;9.894;2022-07-06T09:47:07;0.20;;;0.20;;
12818;SDS011;6474;53.474;9.894;2022-07-06T09:49:36;0.20;;;0.20;;
12818;SDS011;6474;53.474;9.894;2022-07-06T09:52:05;0.30;;;0.30;;
12818;SDS011;6474;53.474;9.894;2022-07-06T09:54:35;0.20;;;0.20;;
12818;SDS011;6474;53.474;9.894;2022-07-06T09:57:05;0.30;;;0.30;;
12818;SDS011;6474;53.474;9.894;2022-07-06T09:59:35;0.38;;;0.38;;
12818;SDS011;6474;53.474;9.894;2022-07-06T10:02:06;0.65;;;0.20;;
12818;SDS011;6474;53.474;9.894;2022-07-06T10:04:35;0.20;;;0.20;;
12818;SDS011;6474;53.474;9.894;2022-07-06T10:07:03;0.45;;;0.20;;
12818;SDS011;6474;53.474;9.894;2022-07-06T10:09:32;0.30;;;0.30;;
12818;SDS011;6474;53.474;9.894;2022-07-06T10:12:01;0.30;;;0.30;;
12818;SDS011;6474;53.474;9.894;2022-07-06T10:14:30;0.52;;;0.52;;
12818;SDS011;6474;53.474;9.894;2022-07-06T10:17:01;0.20;;;0.20;;
12818;SDS011;6474;53.474;9.894;2022-07-06T10:19:33;0.90;;;0.57;;
12818;SDS011;6474;53.474;9.894;2022-07-06T10:22:02;0.20;;;0.20;;
12818;SDS011;6474;53.474;9.894;2022-07-06T10:24:31;0.10;;;0.10;;
12818;SDS011;6474;53.474;9.894;2022-07-06T10:27:00;0.57;;;0.25;;
12818;SDS011;6474;53.474;9.894;2022-07-06T10:29:30;0.22;;;0.22;;
12818;SDS011;6474;53.474;9.894;2022-07-06T10:31:58;0.10;;;0.10;;
12818;SDS011;6474;53.474;9.894;2022-07-06T10:34:28;0.20;;;0.20;;
12818;SDS011;6474;53.474;9.894;2022-07-06T10:36:57;0.10;;;0.10;;
12818;SDS011;6474;53.474;9.894;2022-07-06T10:39:34;0.43;;;0.10;;
12818;SDS011;6474;53.474;9.894;2022-07-06T10:42:39;0.10;;;0.10;;
12818;SDS011;6474;53.474;9.894;2022-07-06T10:45:09;0.28;;;0.28;;
12818;SDS011;6474;53.474;9.894;2022-07-06T10:47:39;0.28;;;0.28;;
12818;SDS011;6474;53.474;9.894;2022-07-06T10:50:08;0.20;;;0.20;;
12818;SDS011;6474;53.474;9.894;2022-07-06T10:52:50;0.43;;;0.43;;
12818;SDS011;6474;53.474;9.894;2022-07-06T10:55:29;1.25;;;0.30;;
12818;SDS011;6474;53.474;9.894;2022-07-06T10:57:57;0.10;;;0.10;;
12818;SDS011;6474;53.474;9.894;2022-07-06T11:00:28;0.20;;;0.20;;
12818;SDS011;6474;53.474;9.894;2022-07-06T11:03:30;0.20;;;0.20;;
12818;SDS011;6474;53.474;9.894;2022-07-06T11:06:07;0.47;;;0.30;;
12818;SDS011;6474;53.474;9.894;2022-07-06T11:11:37;0.30;;;0.30;;
12818;SDS011;6474;53.474;9.894;2022-07-06T11:14:08;0.43;;;0.43;;
12818;SDS011;6474;53.474;9.894;2022-07-06T11:16:39;0.43;;;0.43;;
12818;SDS011;6474;53.474;9.894;2022-07-06T11:19:08;0.30;;;0.30;;
12818;SDS011;6474;53.474;9.894;2022-07-06T11:21:44;0.57;;;0.57;;
12818;SDS011;6474;53.474;9.894;2022-07-06T11:24:15;0.22;;;0.22;;
12818;SDS011;6474;53.474;9.894;2022-07-06T11:26:45;0.70;;;0.70;;
12818;SDS011;6474;53.474;9.894;2022-07-06T11:29:15;0.40;;;0.40;;
12818;SDS011;6474;53.474;9.894;2022-07-06T11:31:44;2.53;;;0.30;;
12818;SDS011;6474;53.474;9.894;2022-07-06T11:34:17;0.00;;;0.00;;
12818;SDS011;6474;53.474;9.894;2022-07-06T11:36:47;0.28;;;0.28;;
12818;SDS011;6474;53.474;9.894;2022-07-06T11:39:16;0.10;;;0.10;;
12818;SDS011;6474;53.474;9.894;2022-07-06T11:41:44;0.28;;;0.28;;
12818;SDS011;6474;53.474;9.894;2022-07-06T11:44:17;0.25;;;0.25;;
12818;SDS011;6474;53.474;9.894;2022-07-06T11:46:45;0.15;;;0.15;;
12818;SDS011;6474;53.474;9.894;2022-07-06T11:49:16;0.30;;;0.30;;
12818;SDS011;6474;53.474;9.894;2022-07-06T11:51:45;0.45;;;0.40;;
12818;SDS011;6474;53.474;9.894;2022-07-06T11:54:14;0.28;;;0.28;;
12818;SDS011;6474;53.474;9.894;2022-07-06T11:56:47;0.30;;;0.30;;
12818;SDS011;6474;53.474;9.894;2022-07-06T11:59:20;0.38;;;0.38;;
12818;SDS011;6474;53.474;9.894;2022-07-06T12:01:49;0.40;;;0.40;;
12818;SDS011;6474;53.474;9.894;2022-07-06T12:04:24;0.20;;;0.20;;
12818;SDS011;6474;53.474;9.894;2022-07-06T12:06:53;0.20;;;0.20;;
12818;SDS011;6474;53.474;9.894;2022-07-06T12:09:22;0.10;;;0.10;;
12818;SDS011;6474;53.474;9.894;2022-07-06T12:11:50;0.30;;;0.30;;
12818;SDS011;6474;53.474;9.894;2022-07-06T12:14:19;0.28;;;0.28;;
12818;SDS011;6474;53.474;9.894;2022-07-06T12:16:48;0.13;;;0.13;;
12818;SDS011;6474;53.474;9.894;2022-07-06T12:19:17;0.15;;;0.15;;
12818;SDS011;6474;53.474;9.894;2022-07-06T12:21:50;0.30;;;0.30;;
12818;SDS011;6474;53.474;9.894;2022-07-06T12:24:19;0.10;;;0.10;;
12818;SDS011;6474;53.474;9.894;2022-07-06T12:26:50;0.30;;;0.30;;
12818;SDS011;6474;53.474;9.894;2022-07-06T12:29:19;0.35;;;0.20;;
12818;SDS011;6474;53.474;9.894;2022-07-06T12:31:49;1.45;;;0.43;;
12818;SDS011;6474;53.474;9.894;2022-07-06T12:34:19;0.98;;;0.30;;
12818;SDS011;6474;53.474;9.894;2022-07-06T12:36:48;0.20;;;0.20;;
12818;SDS011;6474;53.474;9.894;2022-07-06T12:39:18;0.13;;;0.13;;
12818;SDS011;6474;53.474;9.894;2022-07-06T12:41:47;0.22;;;0.22;;
12818;SDS011;6474;53.474;9.894;2022-07-06T12:44:19;0.20;;;0.20;;
12818;SDS011;6474;53.474;9.894;2022-07-06T12:46:49;0.15;;;0.15;;
12818;SDS011;6474;53.474;9.894;2022-07-06T12:49:18;3.03;;;0.10;;
12818;SDS011;6474;53.474;9.894;2022-07-06T12:54:39;0.20;;;0.20;;
12818;SDS011;6474;53.474;9.894;2022-07-06T12:57:11;0.20;;;0.20;;
12818;SDS011;6474;53.474;9.894;2022-07-06T12:59:42;0.10;;;0.10;;
12818;SDS011;6474;53.474;9.894;2022-07-06T13:02:18;0.17;;;0.17;;
12818;SDS011;6474;53.474;9.894;2022-07-06T13:05:08;0.17;;;0.15;;
12818;SDS011;6474;53.474;9.894;2022-07-06T13:07:37;0.17;;;0.17;;
12818;SDS011;6474;53.474;9.894;2022-07-06T13:10:07;0.20;;;0.20;;
12818;SDS011;6474;53.474;9.894;2022-07-06T13:12:37;0.28;;;0.28;;
12818;SDS011;6474;53.474;9.894;2022-07-06T13:15:07;0.25;;;0.25;;
12818;SDS011;6474;53.474;9.894;2022-07-06T13:17:36;1.13;;;0.30;;
12818;SDS011;6474;53.474;9.894;2022-07-06T13:20:04;0.00;;;0.00;;
12818;SDS011;6474;53.474;9.894;2022-07-06T13:22:35;0.10;;;0.10;;
12818;SDS011;6474;53.474;9.894;2022-07-06T13:25:03;0.10;;;0.10;;
12818;SDS011;6474;53.474;9.894;2022-07-06T13:27:34;0.15;;;0.15;;
12818;SDS011;6474;53.474;9.894;2022-07-06T13:30:05;0.10;;;0.10;;
12818;SDS011;6474;53.474;9.894;2022-07-06T13:32:35;0.20;;;0.20;;
12818;SDS011;6474;53.474;9.894;2022-07-06T13:35:09;0.28;;;0.10;;
12818;SDS011;6474;53.474;9.894;2022-07-06T13:37:37;0.20;;;0.20;;
12818;SDS011;6474;53.474;9.894;2022-07-06T13:40:05;0.20;;;0.20;;
12818;SDS011;6474;53.474;9.894;2022-07-06T13:42:34;2.33;;;0.15;;
12818;SDS011;6474;53.474;9.894;2022-07-06T13:45:02;0.10;;;0.10;;
12818;SDS011;6474;53.474;9.894;2022-07-06T13:47:32;0.10;;;0.10;;
12818;SDS011;6474;53.474;9.894;2022-07-06T13:50:00;0.03;;;0.03;;
12818;SDS011;6474;53.474;9.894;2022-07-06T13:52:31;0.10;;;0.10;;
12818;SDS011;6474;53.474;9.894;2022-07-06T13:54:59;0.10;;;0.10;;
12818;SDS011;6474;53.474;9.894;2022-07-06T13:57:28;0.10;;;0.10;;
12818;SDS011;6474;53.474;9.894;2022-07-06T13:59:56;0.20;;;0.20;;
12818;SDS011;6474;53.474;9.894;2022-07-06T14:02:24;0.20;;;0.20;;
12818;SDS011;6474;53.474;9.894;2022-07-06T14:04:53;0.10;;;0.10;;
12818;SDS011;6474;53.474;9.894;2022-07-06T14:07:21;0.10;;;0.10;;
12818;SDS011;6474;53.474;9.894;2022-07-06T14:09:50;0.20;;;0.20;;
12818;SDS011;6474;53.474;9.894;2022-07-06T14:12:19;0.30;;;0.30;;
12818;SDS011;6474;53.474;9.894;2022-07-06T14:14:48;0.00;;;0.00;;
12818;SDS011;6474;53.474;9.894;2022-07-06T14:17:16;0.30;;;0.22;;
12818;SDS011;6474;53.474;9.894;2022-07-06T14:19:45;0.20;;;0.20;;
12818;SDS011;6474;53.474;9.894;2022-07-06T14:22:16;0.10;;;0.10;;
12818;SDS011;6474;53.474;9.894;2022-07-06T14:24:44;0.10;;;0.10;;
12818;SDS011;6474;53.474;9.894;2022-07-06T14:27:12;0.20;;;0.20;;
12818;SDS011;6474;53.474;9.894;2022-07-06T14:29:40;0.10;;;0.10;;
12818;SDS011;6474;53.474;9.894;2022-07-06T14:32:08;0.13;;;0.13;;
12818;SDS011;6474;53.474;9.894;2022-07-06T14:34:36;0.10;;;0.10;;
12818;SDS011;6474;53.474;9.894;2022-07-06T14:37:04;0.10;;;0.10;;
12818;SDS011;6474;53.474;9.894;2022-07-06T14:39:34;0.25;;;0.25;;
12818;SDS011;6474;53.474;9.894;2022-07-06T14:42:03;1.00;;;0.30;;
12818;SDS011;6474;53.474;9.894;2022-07-06T14:44:31;0.10;;;0.10;;
12818;SDS011;6474;53.474;9.894;2022-07-06T14:46:59;0.20;;;0.20;;
12818;SDS011;6474;53.474;9.894;2022-07-06T14:49:27;0.15;;;0.15;;
12818;SDS011;6474;53.474;9.894;2022-07-06T14:51:55;0.30;;;0.30;;
12818;SDS011;6474;53.474;9.894;2022-07-06T14:54:23;1.02;;;0.28;;
12818;SDS011;6474;53.474;9.894;2022-07-06T14:56:53;0.10;;;0.10;;
12818;SDS011;6474;53.474;9.894;2022-07-06T14:59:20;0.17;;;0.17;;
12818;SDS011;6474;53.474;9.894;2022-07-06T15:01:51;0.20;;;0.20;;
12818;SDS011;6474;53.474;9.894;2022-07-06T15:04:19;0.20;;;0.20;;
12818;SDS011;6474;53.474;9.894;2022-07-06T15:06:48;0.25;;;0.25;;
12818;SDS011;6474;53.474;9.894;2022-07-06T15:09:22;0.20;;;0.20;;
12818;SDS011;6474;53.474;9.894;2022-07-06T15:11:53;0.10;;;0.10;;
12818;SDS011;6474;53.474;9.894;2022-07-06T15:14:22;0.10;;;0.10;;
12818;SDS011;6474;53.474;9.894;2022-07-06T15:16:51;0.20;;;0.20;;
12818;SDS011;6474;53.474;9.894;2022-07-06T15:19:20;0.20;;;0.20;;